Buoy 47555

sailwx.info

Track history (hours):
 
Tides and Currents Weather Stations Pressure Air Temp Water Temp Dewpoint Dewpoint Depression Visibility Wind Speed Wind Dir Waves Ship Positions

Drifting buoy 47555

Last reported at 2017-Dec-11 16:00 UTC. Time now 2017-Dec-12 04:24 UTC.
Position N 42°13' W 016°50'.

Barometer 1015.9 mb
Water temperature 16.5 ° C

Date/timePositionNaut miles runAvg speedWind from/ knotsBaromVisibWave heightAir tempDewpointWater temp
2017-Dec-11 16:00N 42°13' W 016°50'1 1.2 1015.9 16.5
2017-Dec-11 15:00N 42°14' W 016°50'1 1.3 1015.0 16.5
2017-Dec-11 14:00N 42°15' W 016°50'1 1.2 1014.5 16.5
2017-Dec-11 13:00N 42°16' W 016°50'1 1.2 1014.3 16.5
2017-Dec-11 12:00N 42°17' W 016°50'2 2.0 1014.2 16.5
2017-Dec-11 11:00N 42°19' W 016°51'1 1.5 1013.2 16.5
2017-Dec-11 10:00N 42°20' W 016°52'1 1.1 1012.2 16.5
2017-Dec-11 09:00N 42°21' W 016°53'0 0.4 1011.4 16.6
2017-Dec-11 08:00N 42°21' W 016°54'1 0.7 1010.5 16.6
2017-Dec-11 07:00N 42°22' W 016°55'1 0.6 1009.7 16.5
2017-Dec-11 06:00N 42°22' W 016°55'1 0.7 1008.5 16.5
2017-Dec-11 05:00N 42°23' W 016°55'0 0.0 1007.8 16.5
2017-Dec-11 04:00N 42°23' W 016°55'1 1.2 1007.5 16.5
2017-Dec-11 03:00N 42°24' W 016°55'1 0.7 1007.0 16.6
2017-Dec-11 02:00N 42°25' W 016°55'1 1.2 1006.6 16.6
2017-Dec-11 01:00N 42°26' W 016°55'2 1.9 1006.3 16.6
2017-Dec-11 00:00N 42°28' W 016°54'1 1.2 1006.0 16.7
2017-Dec-10 23:00N 42°29' W 016°54'2 1.9 1005.1 16.7
2017-Dec-10 22:00N 42°31' W 016°55'1 1.2 1004.5 16.8
2017-Dec-10 21:00N 42°32' W 016°55'2 1.9 1003.7 16.9
2017-Dec-10 20:00N 42°34' W 016°55'1 1.3 1003.0 16.9
2017-Dec-10 19:00N 42°35' W 016°56'2 2.0 999.1 16.9
2017-Dec-10 18:00N 42°37' W 016°57'1 1.5 1000.1 17.0
2017-Dec-10 17:00N 42°38' W 016°58'2 1.8 998.7 17.0
2017-Dec-10 16:00N 42°39' W 017°00'1 1.1 999.0 17.0
2017-Dec-10 15:00N 42°40' W 017°01'1 1.5 999.1 17.0
2017-Dec-10 14:00N 42°40' W 017°03'1 0.9 1001.7 17.0
2017-Dec-10 13:00N 42°40' W 017°04'1 0.7 1004.2 17.0
2017-Dec-10 12:00N 42°40' W 017°05'0 0.0 1006.0 17.0
2017-Dec-10 11:00N 42°40' W 017°05'0 0.4 1009.0 17.0
2017-Dec-10 10:00N 42°40' W 017°05'1 0.6 1010.4 17.0
2017-Dec-10 09:00N 42°40' W 017°05'0 0.0 1011.5 17.1
2017-Dec-10 08:00N 42°40' W 017°05'1 1.3 1012.8 17.1
2017-Dec-10 07:00N 42°41' W 017°06'1 0.7 1013.8 17.1
2017-Dec-10 06:00N 42°42' W 017°07'1 0.7 1014.9 17.1
2017-Dec-10 05:00N 42°43' W 017°07'1 1.1 1016.1 17.1
2017-Dec-10 04:00N 42°43' W 017°08'1 0.7 1017.0 17.1
2017-Dec-10 03:00N 42°44' W 017°09'1 0.9 1017.4 17.1
2017-Dec-10 02:00N 42°44' W 017°10'0 0.4 1018.4 17.1
2017-Dec-10 01:00N 42°44' W 017°11'1 0.9 1019.5 17.1
2017-Dec-10 00:00N 42°44' W 017°12'0 0.4 1020.6 17.1
2017-Dec-09 23:00N 42°44' W 017°13'0 0.4 1021.0 17.1
2017-Dec-09 22:00N 42°44' W 017°13'1 0.7 1021.5 17.1
2017-Dec-09 21:00N 42°43' W 017°14'0 0.4 1022.0 17.1
2017-Dec-09 20:00N 42°43' W 017°14'0 0.4 1022.5 17.1
2017-Dec-09 19:00N 42°43' W 017°15'0 0.0 1022.7 17.1
2017-Dec-09 18:00N 42°43' W 017°15'0 0.0 1022.9 17.1
2017-Dec-09 17:00N 42°43' W 017°15'0 0.0 1023.4 17.1
2017-Dec-09 16:00N 42°43' W 017°15'0 0.4 1023.8 17.0
2017-Dec-09 15:00N 42°43' W 017°16'0 0.0 1024.6 17.1
2017-Dec-09 14:00N 42°43' W 017°16'1 0.6 1025.2 17.1
2017-Dec-09 13:00N 42°44' W 017°16'0 0.4 1026.3 17.1
2017-Dec-09 12:00N 42°44' W 017°16'1 0.7 1027.2 17.0
2017-Dec-09 11:00N 42°44' W 017°17'1 0.4 1027.5 17.0
2017-Dec-09 09:00N 42°44' W 017°18'0 0.4 1027.3 17.0
2017-Dec-09 08:00N 42°44' W 017°19'1 0.7 1027.1 17.1
2017-Dec-09 07:00N 42°44' W 017°19'0 0.4 1027.3 17.1
2017-Dec-09 06:00N 42°44' W 017°20'0 0.4 1027.8 17.1
2017-Dec-09 05:00N 42°44' W 017°20'1 0.7 1028.2 17.1
2017-Dec-09 04:00N 42°43' W 017°21'0 0.0 1028.8 17.1
2017-Dec-09 03:00N 42°43' W 017°21'1 0.6 1029.1 17.1
2017-Dec-09 02:00N 42°43' W 017°21'0 0.0 1029.8 17.1
2017-Dec-09 01:00N 42°43' W 017°21'0 0.0 1030.2 17.1
2017-Dec-09 00:00N 42°43' W 017°21'0 0.0 1029.9 17.1
2017-Dec-08 23:00N 42°43' W 017°21'0 0.0 1030.4 17.1
2017-Dec-08 22:00N 42°43' W 017°21'1 0.6 1030.6 17.1
2017-Dec-08 21:00N 42°43' W 017°21'0 0.0 1030.5 17.1
2017-Dec-08 20:00N 42°43' W 017°21'0 0.0 1030.7 17.1
2017-Dec-08 19:00N 42°43' W 017°21'1 0.7 1030.5 17.1
2017-Dec-08 18:00N 42°44' W 017°22'0 0.4 1030.5 17.1
2017-Dec-08 17:00N 42°44' W 017°22'0 0.4 1030.4 17.1
2017-Dec-08 16:00N 42°44' W 017°23'0 0.4 1030.1 17.1
2017-Dec-08 15:00N 42°44' W 017°23'0 0.4 1030.2 17.1
2017-Dec-08 14:00N 42°44' W 017°24'0 0.0 1030.6 17.1
2017-Dec-08 13:00N 42°44' W 017°24'0 0.4 1031.1 17.2
2017-Dec-08 12:00N 42°44' W 017°25'1 0.7 1031.7 17.2
2017-Dec-08 11:00N 42°43' W 017°25'0 0.0 1031.7 17.2
2017-Dec-08 10:00N 42°43' W 017°25'0 0.0 1030.9 17.2
2017-Dec-08 09:00N 42°43' W 017°25'1 0.7 1030.4 17.2
2017-Dec-08 08:00N 42°43' W 017°25'0 0.0 1030.3 17.2
2017-Dec-08 07:00N 42°43' W 017°25'0 0.0 1029.7 17.1
2017-Dec-08 06:00N 42°43' W 017°25'0 0.0 1029.7 17.1
2017-Dec-08 05:00N 42°43' W 017°25'0 0.4 1029.7 17.1
2017-Dec-08 04:00N 42°43' W 017°24'1 0.6 1029.6 17.1
2017-Dec-08 03:00N 42°43' W 017°24'0 0.4 1029.4 17.1
2017-Dec-08 02:00N 42°43' W 017°25'1 0.6 1029.4 17.1
2017-Dec-08 01:00N 42°44' W 017°25'0 0.4 1029.5 17.1
2017-Dec-08 00:00N 42°44' W 017°25'1 0.7 1029.6 17.1
2017-Dec-07 23:00N 42°44' W 017°26'0 0.4 1029.3 17.1
2017-Dec-07 22:00N 42°44' W 017°26'0 0.4 1029.2 17.1
2017-Dec-07 21:00N 42°44' W 017°27'0 0.4 1029.0 17.1
2017-Dec-07 20:00N 42°44' W 017°28'0 0.4 1028.7 17.1
2017-Dec-07 19:00N 42°44' W 017°28'0 0.4 1028.2 17.1
2017-Dec-07 18:00N 42°44' W 017°29'1 0.7 1027.8 17.1
2017-Dec-07 17:00N 42°44' W 017°29'0 0.0 1027.7 17.1
2017-Dec-07 16:00N 42°44' W 017°29'0 0.4 1027.2 17.1
2017-Dec-07 15:00N 42°44' W 017°30'1 0.6 1027.1 17.1
2017-Dec-07 14:00N 42°43' W 017°30'0 0.0 1027.1 17.1
2017-Dec-07 13:00N 42°43' W 017°30'0 0.4 1027.5 17.1
2017-Dec-07 12:00N 42°43' W 017°29'1 0.6 1027.9 17.1
2017-Dec-07 11:00N 42°44' W 017°29'0 0.0 1027.7 17.1
2017-Dec-07 10:00N 42°44' W 017°29'1 0.6 1026.7 17.1
2017-Dec-07 09:00N 42°44' W 017°29'1 0.6 1026.0 17.1
2017-Dec-07 08:00N 42°45' W 017°29'0 0.0 1025.0 17.1
2017-Dec-07 07:00N 42°45' W 017°29'1 0.7 1024.4 17.1
2017-Dec-07 06:00N 42°46' W 017°30'0 0.0 1024.0 17.1
2017-Dec-07 05:00N 42°46' W 017°30'0 0.4 1024.9 17.1
2017-Dec-07 04:00N 42°46' W 017°31'0 0.4 1025.1 17.1
2017-Dec-07 03:00N 42°46' W 017°31'0 0.4 1025.0 17.2
2017-Dec-07 02:00N 42°46' W 017°32'0 0.4 1024.9 17.2
2017-Dec-07 01:00N 42°46' W 017°32'1 0.6 1025.2 17.2
2017-Dec-07 00:00N 42°45' W 017°32'0 0.4 1024.9 17.2
2017-Dec-06 23:00N 42°45' W 017°33'0 0.0 1024.5 17.2
2017-Dec-06 22:00N 42°45' W 017°33'0 0.0 1024.8 17.2
2017-Dec-06 21:00N 42°45' W 017°33'0 0.0 1025.1 17.2
2017-Dec-06 20:00N 42°45' W 017°33'1 0.6 1024.7 17.2
2017-Dec-06 19:00N 42°44' W 017°33'0 0.0 1024.4 17.2
2017-Dec-06 18:00N 42°44' W 017°33'0 0.0 1024.3 17.2
2017-Dec-06 17:00N 42°44' W 017°33'0 0.0 1024.1 17.2
2017-Dec-06 16:00N 42°44' W 017°33'0 0.0 1024.1 17.2
2017-Dec-06 15:00N 42°44' W 017°33'0 0.0 1024.2 17.2
2017-Dec-06 14:00N 42°44' W 017°33'1 0.7 1024.3 17.1
2017-Dec-06 13:00N 42°45' W 017°34'0 0.4 1024.9 17.2
2017-Dec-06 12:00N 42°45' W 017°34'1 0.9 1025.6 17.1
2017-Dec-06 11:00N 42°45' W 017°35'0 0.4 1025.6 17.1
2017-Dec-06 10:00N 42°45' W 017°36'0 0.4 1025.2 17.2
2017-Dec-06 09:00N 42°45' W 017°37'1 0.7 1024.6 17.2
2017-Dec-06 08:00N 42°44' W 017°37'0 0.4 1023.8 17.2
2017-Dec-06 07:00N 42°44' W 017°38'1 0.7 1023.5 17.2
2017-Dec-06 06:00N 42°44' W 017°38'1 1.2 1023.1 17.2
2017-Dec-06 05:00N 42°43' W 017°38'1 0.6 1023.5 17.2
2017-Dec-06 04:00N 42°42' W 017°38'1 0.7 1024.2 17.2
2017-Dec-06 03:00N 42°41' W 017°39'1 0.6 1024.5 17.3
2017-Dec-06 02:00N 42°41' W 017°39'0 0.4 1024.8 17.3
2017-Dec-06 01:00N 42°41' W 017°38'1 0.6 1025.6 17.3
2017-Dec-06 00:00N 42°40' W 017°38'0 0.0 1025.7 17.3
2017-Dec-05 23:00N 42°40' W 017°38'0 0.0 1025.9 17.2
2017-Dec-05 22:00N 42°40' W 017°38'1 0.7 1026.1 17.2
2017-Dec-05 21:00N 42°40' W 017°39'0 0.0 1026.3 17.2
2017-Dec-05 20:00N 42°40' W 017°39'0 0.4 1026.3 17.2
2017-Dec-05 19:00N 42°40' W 017°40'1 0.6 1026.1 17.2
2017-Dec-05 18:00N 42°39' W 017°40'1 0.7 1026.2 17.2
2017-Dec-05 17:00N 42°38' W 017°40'0 0.4 1026.4 17.2
2017-Dec-05 16:00N 42°38' W 017°41'1 1.3 1026.5 17.3
2017-Dec-05 15:00N 42°37' W 017°41'1 0.7 1026.8 17.3
2017-Dec-05 14:00N 42°37' W 017°42'1 1.3 1027.3 17.3
2017-Dec-05 13:00N 42°35' W 017°43'1 0.6 1028.0 17.3
2017-Dec-05 12:00N 42°35' W 017°43'1 1.2 1028.6 17.3
2017-Dec-05 11:00N 42°34' W 017°43'1 0.6 1028.9 17.3
2017-Dec-05 10:00N 42°33' W 017°43'1 0.7 1028.8 17.3
2017-Dec-05 09:00N 42°32' W 017°42'1 0.7 1028.5 17.3
2017-Dec-05 08:00N 42°32' W 017°41'1 0.7 1028.4 17.4
2017-Dec-05 07:00N 42°31' W 017°41'0 0.4 1028.6 17.3
2017-Dec-05 06:00N 42°31' W 017°40'1 0.7 1028.4 17.3
2017-Dec-05 05:00N 42°31' W 017°40'0 0.0 1028.4 17.3
2017-Dec-05 04:00N 42°31' W 017°40'1 0.6 1028.9 17.3
2017-Dec-05 03:00N 42°30' W 017°40'0 0.0 1029.0 17.3
2017-Dec-05 02:00N 42°30' W 017°40'1 0.6 1029.6 17.3
2017-Dec-05 01:00N 42°29' W 017°40'0 0.4 1030.0 17.3
2017-Dec-05 00:00N 42°29' W 017°40'1 0.7 1030.3 17.3
2017-Dec-04 23:00N 42°29' W 017°41'1 0.6 1030.6 17.3
2017-Dec-04 22:00N 42°28' W 017°41'2 0.6 1030.9 17.3
2017-Dec-04 19:00N 42°26' W 017°41'1 1.3 1030.7 17.3
2017-Dec-04 18:00N 42°25' W 017°40'1 0.7 1030.5 17.3
2017-Dec-04 17:00N 42°25' W 017°40'1 0.7 1030.2 17.3
2017-Dec-04 16:00N 42°24' W 017°39'1 0.7 1030.1 17.3
2017-Dec-04 15:00N 42°23' W 017°38'1 0.7 1030.2 17.3
2017-Dec-04 14:00N 42°23' W 017°38'1 0.7 1030.5 17.3
2017-Dec-04 13:00N 42°22' W 017°37'0 0.4 1031.1 17.3
2017-Dec-04 12:00N 42°22' W 017°37'0 0.4 1031.9 17.3
2017-Dec-04 11:00N 42°22' W 017°36'0 0.0 1032.2 17.3
2017-Dec-04 10:00N 42°22' W 017°36'1 0.6 1031.7 17.3
2017-Dec-04 09:00N 42°22' W 017°36'0 0.4 1031.1 17.3
2017-Dec-04 08:00N 42°22' W 017°35'1 0.6 1030.5 17.3
2017-Dec-04 07:00N 42°21' W 017°35'1 0.6 1029.8 17.3
2017-Dec-04 06:00N 42°20' W 017°35'1 0.6 1029.8 17.3
2017-Dec-04 05:00N 42°20' W 017°35'1 0.6 1029.7 17.3
2017-Dec-04 04:00N 42°19' W 017°35'1 0.7 1029.7 17.3
2017-Dec-04 03:00N 42°19' W 017°35'1 1.2 1030.0 17.3
2017-Dec-04 02:00N 42°17' W 017°35'1 1.3 1030.4 17.3
2017-Dec-04 01:00N 42°16' W 017°34'1 0.7 1030.6 17.3
2017-Dec-04 00:00N 42°16' W 017°34'1 1.1 1030.6 17.3
2017-Dec-03 23:00N 42°15' W 017°32'1 0.7 1030.3 17.3
2017-Dec-03 22:00N 42°14' W 017°32'1 0.9 1030.7 17.4
2017-Dec-03 21:00N 42°14' W 017°31'0 0.4 1030.5 17.4
2017-Dec-03 20:00N 42°14' W 017°30'1 0.9 1030.3 17.4
2017-Dec-03 19:00N 42°14' W 017°29'0 0.4 1030.0 17.4
2017-Dec-03 18:00N 42°14' W 017°28'0 0.0 1029.5 17.4
2017-Dec-03 17:00N 42°14' W 017°28'0 0.0 1029.2 17.4
2017-Dec-03 16:00N 42°14' W 017°28'1 0.7 1029.0 17.4
2017-Dec-03 15:00N 42°14' W 017°29'0 0.0 1028.9 17.4
2017-Dec-03 14:00N 42°14' W 017°29'1 0.6 1029.5 17.4
2017-Dec-03 13:00N 42°13' W 017°29'1 0.7 1030.3 17.4
2017-Dec-03 12:00N 42°13' W 017°29'1 1.2 1031.0 17.4
2017-Dec-03 11:00N 42°11' W 017°29'1 0.6 1030.5 17.4
2017-Dec-03 10:00N 42°11' W 017°29'1 0.7 1030.9 17.4
2017-Dec-03 09:00N 42°10' W 017°29'1 1.1 1030.5 17.4
2017-Dec-03 08:00N 42°10' W 017°28'1 0.7 1029.9 17.4
2017-Dec-03 07:00N 42°09' W 017°27'1 1.1 1029.6 17.3
2017-Dec-03 06:00N 42°08' W 017°26'1 1.3 1029.1 17.3
2017-Dec-03 05:00N 42°08' W 017°24'1 0.9 1029.1 17.3
2017-Dec-03 04:00N 42°08' W 017°23'0 0.4 1029.3 17.3
2017-Dec-03 03:00N 42°08' W 017°22'0 0.4 1029.3 17.2
2017-Dec-03 02:00N 42°08' W 017°22'1 0.7 1029.7 17.2
2017-Dec-03 01:00N 42°09' W 017°21'0 0.0 1029.8 17.2
2017-Dec-03 00:00N 42°09' W 017°21'0 0.0 1029.7 17.2
2017-Dec-02 23:00N 42°09' W 017°21'0 0.0 1029.6 17.2
2017-Dec-02 22:00N 42°09' W 017°21'0 0.4 1029.6 17.3
2017-Dec-02 21:00N 42°09' W 017°22'1 0.6 1029.4 17.3
2017-Dec-02 20:00N 42°08' W 017°22'1 0.6 1029.2 17.3
2017-Dec-02 19:00N 42°08' W 017°22'1 0.6 1029.0 17.3
2017-Dec-02 18:00N 42°07' W 017°22'1 0.7 1028.9 17.3
2017-Dec-02 17:00N 42°07' W 017°21'1 0.7 1028.5 17.4
2017-Dec-02 16:00N 42°06' W 017°20'1 0.7 1028.3 17.4
2017-Dec-02 15:00N 42°05' W 017°20'1 1.1 1028.4 17.4
2017-Dec-02 14:00N 42°05' W 017°19'1 0.9 1028.7 17.4
2017-Dec-02 13:00N 42°05' W 017°17'1 1.1 1029.0 17.4
2017-Dec-02 12:00N 42°04' W 017°16'1 1.1 1029.8 17.4
2017-Dec-02 11:00N 42°05' W 017°15'1 0.9 1029.7 17.3
2017-Dec-02 10:00N 42°05' W 017°14'1 0.7 1029.6 17.4
2017-Dec-02 09:00N 42°05' W 017°13'0 0.4 1029.3 17.3
2017-Dec-02 08:00N 42°05' W 017°13'1 0.6 1029.4 17.3
2017-Dec-02 07:00N 42°06' W 017°13'1 0.7 1028.9 17.3
2017-Dec-02 06:00N 42°07' W 017°12'0 0.0 1029.2 17.3
2017-Dec-02 05:00N 42°07' W 017°12'1 0.6 1029.4 17.3
2017-Dec-02 04:00N 42°07' W 017°12'0 0.0 1029.6 17.3
2017-Dec-02 03:00N 42°07' W 017°12'1 0.7 1029.8 17.3
2017-Dec-02 02:00N 42°07' W 017°13'0 0.4 1030.0 17.4
2017-Dec-02 01:00N 42°07' W 017°12'0 0.0 1030.2 17.4
2017-Dec-02 00:00N 42°07' W 017°12'0 0.4 1030.4 17.4
2017-Dec-01 23:00N 42°07' W 017°11'0 0.0 1030.6 17.4
2017-Dec-01 22:00N 42°07' W 017°11'0 0.4 1030.7 17.4
2017-Dec-01 21:00N 42°07' W 017°11'1 0.9 1030.8 17.4
2017-Dec-01 20:00N 42°07' W 017°10'1 0.6 1030.7 17.4
2017-Dec-01 19:00N 42°07' W 017°10'0 0.4 1030.1 17.4
2017-Dec-01 18:00N 42°07' W 017°09'1 1.1 1030.0 17.5
2017-Dec-01 17:00N 42°08' W 017°08'1 1.1 1029.8 17.4
2017-Dec-01 16:00N 42°08' W 017°07'   1029.6 17.4
Track history (hours):
 
Tides and Currents Weather Stations Pressure Air Temp Water Temp Dewpoint Dewpoint Depression Visibility Wind Speed Wind Dir Waves Ship Positions

Drifting buoy 47555

Last reported at 2017-Dec-11 16:00 UTC. Time now 2017-Dec-12 04:24 UTC.
Position N 42°13' W 016°50'.

Barometer 1015.9 mb
Water temperature 16.5 ° C

Date/timePositionNaut miles runAvg speedWind from/ knotsBaromVisibWave heightAir tempDewpointWater temp
2017-Dec-11 16:00N 42°13' W 016°50'1 1.2 1015.9 16.5
2017-Dec-11 15:00N 42°14' W 016°50'1 1.3 1015.0 16.5
2017-Dec-11 14:00N 42°15' W 016°50'1 1.2 1014.5 16.5
2017-Dec-11 13:00N 42°16' W 016°50'1 1.2 1014.3 16.5
2017-Dec-11 12:00N 42°17' W 016°50'2 2.0 1014.2 16.5
2017-Dec-11 11:00N 42°19' W 016°51'1 1.5 1013.2 16.5
2017-Dec-11 10:00N 42°20' W 016°52'1 1.1 1012.2 16.5
2017-Dec-11 09:00N 42°21' W 016°53'0 0.4 1011.4 16.6
2017-Dec-11 08:00N 42°21' W 016°54'1 0.7 1010.5 16.6
2017-Dec-11 07:00N 42°22' W 016°55'1 0.6 1009.7 16.5
2017-Dec-11 06:00N 42°22' W 016°55'1 0.7 1008.5 16.5
2017-Dec-11 05:00N 42°23' W 016°55'0 0.0 1007.8 16.5
2017-Dec-11 04:00N 42°23' W 016°55'1 1.2 1007.5 16.5
2017-Dec-11 03:00N 42°24' W 016°55'1 0.7 1007.0 16.6
2017-Dec-11 02:00N 42°25' W 016°55'1 1.2 1006.6 16.6
2017-Dec-11 01:00N 42°26' W 016°55'2 1.9 1006.3 16.6
2017-Dec-11 00:00N 42°28' W 016°54'1 1.2 1006.0 16.7
2017-Dec-10 23:00N 42°29' W 016°54'2 1.9 1005.1 16.7
2017-Dec-10 22:00N 42°31' W 016°55'1 1.2 1004.5 16.8
2017-Dec-10 21:00N 42°32' W 016°55'2 1.9 1003.7 16.9
2017-Dec-10 20:00N 42°34' W 016°55'1 1.3 1003.0 16.9
2017-Dec-10 19:00N 42°35' W 016°56'2 2.0 999.1 16.9
2017-Dec-10 18:00N 42°37' W 016°57'1 1.5 1000.1 17.0
2017-Dec-10 17:00N 42°38' W 016°58'2 1.8 998.7 17.0
2017-Dec-10 16:00N 42°39' W 017°00'1 1.1 999.0 17.0
2017-Dec-10 15:00N 42°40' W 017°01'1 1.5 999.1 17.0
2017-Dec-10 14:00N 42°40' W 017°03'1 0.9 1001.7 17.0
2017-Dec-10 13:00N 42°40' W 017°04'1 0.7 1004.2 17.0
2017-Dec-10 12:00N 42°40' W 017°05'0 0.0 1006.0 17.0
2017-Dec-10 11:00N 42°40' W 017°05'0 0.4 1009.0 17.0
2017-Dec-10 10:00N 42°40' W 017°05'1 0.6 1010.4 17.0
2017-Dec-10 09:00N 42°40' W 017°05'0 0.0 1011.5 17.1
2017-Dec-10 08:00N 42°40' W 017°05'1 1.3 1012.8 17.1
2017-Dec-10 07:00N 42°41' W 017°06'1 0.7 1013.8 17.1
2017-Dec-10 06:00N 42°42' W 017°07'1 0.7 1014.9 17.1
2017-Dec-10 05:00N 42°43' W 017°07'1 1.1 1016.1 17.1
2017-Dec-10 04:00N 42°43' W 017°08'1 0.7 1017.0 17.1
2017-Dec-10 03:00N 42°44' W 017°09'1 0.9 1017.4 17.1
2017-Dec-10 02:00N 42°44' W 017°10'0 0.4 1018.4 17.1
2017-Dec-10 01:00N 42°44' W 017°11'1 0.9 1019.5 17.1
2017-Dec-10 00:00N 42°44' W 017°12'0 0.4 1020.6 17.1
2017-Dec-09 23:00N 42°44' W 017°13'0 0.4 1021.0 17.1
2017-Dec-09 22:00N 42°44' W 017°13'1 0.7 1021.5 17.1
2017-Dec-09 21:00N 42°43' W 017°14'0 0.4 1022.0 17.1
2017-Dec-09 20:00N 42°43' W 017°14'0 0.4 1022.5 17.1
2017-Dec-09 19:00N 42°43' W 017°15'0 0.0 1022.7 17.1
2017-Dec-09 18:00N 42°43' W 017°15'0 0.0 1022.9 17.1
2017-Dec-09 17:00N 42°43' W 017°15'0 0.0 1023.4 17.1
2017-Dec-09 16:00N 42°43' W 017°15'0 0.4 1023.8 17.0
2017-Dec-09 15:00N 42°43' W 017°16'0 0.0 1024.6 17.1
2017-Dec-09 14:00N 42°43' W 017°16'1 0.6 1025.2 17.1
2017-Dec-09 13:00N 42°44' W 017°16'0 0.4 1026.3 17.1
2017-Dec-09 12:00N 42°44' W 017°16'1 0.7 1027.2 17.0
2017-Dec-09 11:00N 42°44' W 017°17'1 0.4 1027.5 17.0
2017-Dec-09 09:00N 42°44' W 017°18'0 0.4 1027.3 17.0
2017-Dec-09 08:00N 42°44' W 017°19'1 0.7 1027.1 17.1
2017-Dec-09 07:00N 42°44' W 017°19'0 0.4 1027.3 17.1
2017-Dec-09 06:00N 42°44' W 017°20'0 0.4 1027.8 17.1
2017-Dec-09 05:00N 42°44' W 017°20'1 0.7 1028.2 17.1
2017-Dec-09 04:00N 42°43' W 017°21'0 0.0 1028.8 17.1
2017-Dec-09 03:00N 42°43' W 017°21'1 0.6 1029.1 17.1
2017-Dec-09 02:00N 42°43' W 017°21'0 0.0 1029.8 17.1
2017-Dec-09 01:00N 42°43' W 017°21'0 0.0 1030.2 17.1
2017-Dec-09 00:00N 42°43' W 017°21'0 0.0 1029.9 17.1
2017-Dec-08 23:00N 42°43' W 017°21'0 0.0 1030.4 17.1
2017-Dec-08 22:00N 42°43' W 017°21'1 0.6 1030.6 17.1
2017-Dec-08 21:00N 42°43' W 017°21'0 0.0 1030.5 17.1
2017-Dec-08 20:00N 42°43' W 017°21'0 0.0 1030.7 17.1
2017-Dec-08 19:00N 42°43' W 017°21'1 0.7 1030.5 17.1
2017-Dec-08 18:00N 42°44' W 017°22'0 0.4 1030.5 17.1
2017-Dec-08 17:00N 42°44' W 017°22'0 0.4 1030.4 17.1
2017-Dec-08 16:00N 42°44' W 017°23'0 0.4 1030.1 17.1
2017-Dec-08 15:00N 42°44' W 017°23'0 0.4 1030.2 17.1
2017-Dec-08 14:00N 42°44' W 017°24'0 0.0 1030.6 17.1
2017-Dec-08 13:00N 42°44' W 017°24'0 0.4 1031.1 17.2
2017-Dec-08 12:00N 42°44' W 017°25'1 0.7 1031.7 17.2
2017-Dec-08 11:00N 42°43' W 017°25'0 0.0 1031.7 17.2
2017-Dec-08 10:00N 42°43' W 017°25'0 0.0 1030.9 17.2
2017-Dec-08 09:00N 42°43' W 017°25'1 0.7 1030.4 17.2
2017-Dec-08 08:00N 42°43' W 017°25'0 0.0 1030.3 17.2
2017-Dec-08 07:00N 42°43' W 017°25'0 0.0 1029.7 17.1
2017-Dec-08 06:00N 42°43' W 017°25'0 0.0 1029.7 17.1
2017-Dec-08 05:00N 42°43' W 017°25'0 0.4 1029.7 17.1
2017-Dec-08 04:00N 42°43' W 017°24'1 0.6 1029.6 17.1
2017-Dec-08 03:00N 42°43' W 017°24'0 0.4 1029.4 17.1
2017-Dec-08 02:00N 42°43' W 017°25'1 0.6 1029.4 17.1
2017-Dec-08 01:00N 42°44' W 017°25'0 0.4 1029.5 17.1
2017-Dec-08 00:00N 42°44' W 017°25'1 0.7 1029.6 17.1
2017-Dec-07 23:00N 42°44' W 017°26'0 0.4 1029.3 17.1
2017-Dec-07 22:00N 42°44' W 017°26'0 0.4 1029.2 17.1
2017-Dec-07 21:00N 42°44' W 017°27'0 0.4 1029.0 17.1
2017-Dec-07 20:00N 42°44' W 017°28'0 0.4 1028.7 17.1
2017-Dec-07 19:00N 42°44' W 017°28'0 0.4 1028.2 17.1
2017-Dec-07 18:00N 42°44' W 017°29'1 0.7 1027.8 17.1
2017-Dec-07 17:00N 42°44' W 017°29'0 0.0 1027.7 17.1
2017-Dec-07 16:00N 42°44' W 017°29'0 0.4 1027.2 17.1
2017-Dec-07 15:00N 42°44' W 017°30'1 0.6 1027.1 17.1
2017-Dec-07 14:00N 42°43' W 017°30'0 0.0 1027.1 17.1
2017-Dec-07 13:00N 42°43' W 017°30'0 0.4 1027.5 17.1
2017-Dec-07 12:00N 42°43' W 017°29'1 0.6 1027.9 17.1
2017-Dec-07 11:00N 42°44' W 017°29'0 0.0 1027.7 17.1
2017-Dec-07 10:00N 42°44' W 017°29'1 0.6 1026.7 17.1
2017-Dec-07 09:00N 42°44' W 017°29'1 0.6 1026.0 17.1
2017-Dec-07 08:00N 42°45' W 017°29'0 0.0 1025.0 17.1
2017-Dec-07 07:00N 42°45' W 017°29'1 0.7 1024.4 17.1
2017-Dec-07 06:00N 42°46' W 017°30'0 0.0 1024.0 17.1
2017-Dec-07 05:00N 42°46' W 017°30'0 0.4 1024.9 17.1
2017-Dec-07 04:00N 42°46' W 017°31'0 0.4 1025.1 17.1
2017-Dec-07 03:00N 42°46' W 017°31'0 0.4 1025.0 17.2
2017-Dec-07 02:00N 42°46' W 017°32'0 0.4 1024.9 17.2
2017-Dec-07 01:00N 42°46' W 017°32'1 0.6 1025.2 17.2
2017-Dec-07 00:00N 42°45' W 017°32'0 0.4 1024.9 17.2
2017-Dec-06 23:00N 42°45' W 017°33'0 0.0 1024.5 17.2
2017-Dec-06 22:00N 42°45' W 017°33'0 0.0 1024.8 17.2
2017-Dec-06 21:00N 42°45' W 017°33'0 0.0 1025.1 17.2
2017-Dec-06 20:00N 42°45' W 017°33'1 0.6 1024.7 17.2
2017-Dec-06 19:00N 42°44' W 017°33'0 0.0 1024.4 17.2
2017-Dec-06 18:00N 42°44' W 017°33'0 0.0 1024.3 17.2
2017-Dec-06 17:00N 42°44' W 017°33'0 0.0 1024.1 17.2
2017-Dec-06 16:00N 42°44' W 017°33'0 0.0 1024.1 17.2
2017-Dec-06 15:00N 42°44' W 017°33'0 0.0 1024.2 17.2
2017-Dec-06 14:00N 42°44' W 017°33'1 0.7 1024.3 17.1
2017-Dec-06 13:00N 42°45' W 017°34'0 0.4 1024.9 17.2
2017-Dec-06 12:00N 42°45' W 017°34'1 0.9 1025.6 17.1
2017-Dec-06 11:00N 42°45' W 017°35'0 0.4 1025.6 17.1
2017-Dec-06 10:00N 42°45' W 017°36'0 0.4 1025.2 17.2
2017-Dec-06 09:00N 42°45' W 017°37'1 0.7 1024.6 17.2
2017-Dec-06 08:00N 42°44' W 017°37'0 0.4 1023.8 17.2
2017-Dec-06 07:00N 42°44' W 017°38'1 0.7 1023.5 17.2
2017-Dec-06 06:00N 42°44' W 017°38'1 1.2 1023.1 17.2
2017-Dec-06 05:00N 42°43' W 017°38'1 0.6 1023.5 17.2
2017-Dec-06 04:00N 42°42' W 017°38'1 0.7 1024.2 17.2
2017-Dec-06 03:00N 42°41' W 017°39'1 0.6 1024.5 17.3
2017-Dec-06 02:00N 42°41' W 017°39'0 0.4 1024.8 17.3
2017-Dec-06 01:00N 42°41' W 017°38'1 0.6 1025.6 17.3
2017-Dec-06 00:00N 42°40' W 017°38'0 0.0 1025.7 17.3
2017-Dec-05 23:00N 42°40' W 017°38'0 0.0 1025.9 17.2
2017-Dec-05 22:00N 42°40' W 017°38'1 0.7 1026.1 17.2
2017-Dec-05 21:00N 42°40' W 017°39'0 0.0 1026.3 17.2
2017-Dec-05 20:00N 42°40' W 017°39'0 0.4 1026.3 17.2
2017-Dec-05 19:00N 42°40' W 017°40'1 0.6 1026.1 17.2
2017-Dec-05 18:00N 42°39' W 017°40'1 0.7 1026.2 17.2
2017-Dec-05 17:00N 42°38' W 017°40'0 0.4 1026.4 17.2
2017-Dec-05 16:00N 42°38' W 017°41'1 1.3 1026.5 17.3
2017-Dec-05 15:00N 42°37' W 017°41'1 0.7 1026.8 17.3
2017-Dec-05 14:00N 42°37' W 017°42'1 1.3 1027.3 17.3
2017-Dec-05 13:00N 42°35' W 017°43'1 0.6 1028.0 17.3
2017-Dec-05 12:00N 42°35' W 017°43'1 1.2 1028.6 17.3
2017-Dec-05 11:00N 42°34' W 017°43'1 0.6 1028.9 17.3
2017-Dec-05 10:00N 42°33' W 017°43'1 0.7 1028.8 17.3
2017-Dec-05 09:00N 42°32' W 017°42'1 0.7 1028.5 17.3
2017-Dec-05 08:00N 42°32' W 017°41'1 0.7 1028.4 17.4
2017-Dec-05 07:00N 42°31' W 017°41'0 0.4 1028.6 17.3
2017-Dec-05 06:00N 42°31' W 017°40'1 0.7 1028.4 17.3
2017-Dec-05 05:00N 42°31' W 017°40'0 0.0 1028.4 17.3
2017-Dec-05 04:00N 42°31' W 017°40'1 0.6 1028.9 17.3
2017-Dec-05 03:00N 42°30' W 017°40'0 0.0 1029.0 17.3
2017-Dec-05 02:00N 42°30' W 017°40'1 0.6 1029.6 17.3
2017-Dec-05 01:00N 42°29' W 017°40'0 0.4 1030.0 17.3
2017-Dec-05 00:00N 42°29' W 017°40'1 0.7 1030.3 17.3
2017-Dec-04 23:00N 42°29' W 017°41'1 0.6 1030.6 17.3
2017-Dec-04 22:00N 42°28' W 017°41'2 0.6 1030.9 17.3
2017-Dec-04 19:00N 42°26' W 017°41'1 1.3 1030.7 17.3
2017-Dec-04 18:00N 42°25' W 017°40'1 0.7 1030.5 17.3
2017-Dec-04 17:00N 42°25' W 017°40'1 0.7 1030.2 17.3
2017-Dec-04 16:00N 42°24' W 017°39'1 0.7 1030.1 17.3
2017-Dec-04 15:00N 42°23' W 017°38'1 0.7 1030.2 17.3
2017-Dec-04 14:00N 42°23' W 017°38'1 0.7 1030.5 17.3
2017-Dec-04 13:00N 42°22' W 017°37'0 0.4 1031.1 17.3
2017-Dec-04 12:00N 42°22' W 017°37'0 0.4 1031.9 17.3
2017-Dec-04 11:00N 42°22' W 017°36'0 0.0 1032.2 17.3
2017-Dec-04 10:00N 42°22' W 017°36'1 0.6 1031.7 17.3
2017-Dec-04 09:00N 42°22' W 017°36'0 0.4 1031.1 17.3
2017-Dec-04 08:00N 42°22' W 017°35'1 0.6 1030.5 17.3
2017-Dec-04 07:00N 42°21' W 017°35'1 0.6 1029.8 17.3
2017-Dec-04 06:00N 42°20' W 017°35'1 0.6 1029.8 17.3
2017-Dec-04 05:00N 42°20' W 017°35'1 0.6 1029.7 17.3
2017-Dec-04 04:00N 42°19' W 017°35'1 0.7 1029.7 17.3
2017-Dec-04 03:00N 42°19' W 017°35'1 1.2 1030.0 17.3
2017-Dec-04 02:00N 42°17' W 017°35'1 1.3 1030.4 17.3
2017-Dec-04 01:00N 42°16' W 017°34'1 0.7 1030.6 17.3
2017-Dec-04 00:00N 42°16' W 017°34'1 1.1 1030.6 17.3
2017-Dec-03 23:00N 42°15' W 017°32'1 0.7 1030.3 17.3
2017-Dec-03 22:00N 42°14' W 017°32'1 0.9 1030.7 17.4
2017-Dec-03 21:00N 42°14' W 017°31'0 0.4 1030.5 17.4
2017-Dec-03 20:00N 42°14' W 017°30'1 0.9 1030.3 17.4
2017-Dec-03 19:00N 42°14' W 017°29'0 0.4 1030.0 17.4
2017-Dec-03 18:00N 42°14' W 017°28'0 0.0 1029.5 17.4
2017-Dec-03 17:00N 42°14' W 017°28'0 0.0 1029.2 17.4
2017-Dec-03 16:00N 42°14' W 017°28'1 0.7 1029.0 17.4
2017-Dec-03 15:00N 42°14' W 017°29'0 0.0 1028.9 17.4
2017-Dec-03 14:00N 42°14' W 017°29'1 0.6 1029.5 17.4
2017-Dec-03 13:00N 42°13' W 017°29'1 0.7 1030.3 17.4
2017-Dec-03 12:00N 42°13' W 017°29'1 1.2 1031.0 17.4
2017-Dec-03 11:00N 42°11' W 017°29'1 0.6 1030.5 17.4
2017-Dec-03 10:00N 42°11' W 017°29'1 0.7 1030.9 17.4
2017-Dec-03 09:00N 42°10' W 017°29'1 1.1 1030.5 17.4
2017-Dec-03 08:00N 42°10' W 017°28'1 0.7 1029.9 17.4
2017-Dec-03 07:00N 42°09' W 017°27'1 1.1 1029.6 17.3
2017-Dec-03 06:00N 42°08' W 017°26'1 1.3 1029.1 17.3
2017-Dec-03 05:00N 42°08' W 017°24'1 0.9 1029.1 17.3
2017-Dec-03 04:00N 42°08' W 017°23'0 0.4 1029.3 17.3
2017-Dec-03 03:00N 42°08' W 017°22'0 0.4 1029.3 17.2
2017-Dec-03 02:00N 42°08' W 017°22'1 0.7 1029.7 17.2
2017-Dec-03 01:00N 42°09' W 017°21'0 0.0 1029.8 17.2
2017-Dec-03 00:00N 42°09' W 017°21'0 0.0 1029.7 17.2
2017-Dec-02 23:00N 42°09' W 017°21'0 0.0 1029.6 17.2
2017-Dec-02 22:00N 42°09' W 017°21'0 0.4 1029.6 17.3
2017-Dec-02 21:00N 42°09' W 017°22'1 0.6 1029.4 17.3
2017-Dec-02 20:00N 42°08' W 017°22'1 0.6 1029.2 17.3
2017-Dec-02 19:00N 42°08' W 017°22'1 0.6 1029.0 17.3
2017-Dec-02 18:00N 42°07' W 017°22'1 0.7 1028.9 17.3
2017-Dec-02 17:00N 42°07' W 017°21'1 0.7 1028.5 17.4
2017-Dec-02 16:00N 42°06' W 017°20'1 0.7 1028.3 17.4
2017-Dec-02 15:00N 42°05' W 017°20'1 1.1 1028.4 17.4
2017-Dec-02 14:00N 42°05' W 017°19'1 0.9 1028.7 17.4
2017-Dec-02 13:00N 42°05' W 017°17'1 1.1 1029.0 17.4
2017-Dec-02 12:00N 42°04' W 017°16'1 1.1 1029.8 17.4
2017-Dec-02 11:00N 42°05' W 017°15'1 0.9 1029.7 17.3
2017-Dec-02 10:00N 42°05' W 017°14'1 0.7 1029.6 17.4
2017-Dec-02 09:00N 42°05' W 017°13'0 0.4 1029.3 17.3
2017-Dec-02 08:00N 42°05' W 017°13'1 0.6 1029.4 17.3
2017-Dec-02 07:00N 42°06' W 017°13'1 0.7 1028.9 17.3
2017-Dec-02 06:00N 42°07' W 017°12'0 0.0 1029.2 17.3
2017-Dec-02 05:00N 42°07' W 017°12'1 0.6 1029.4 17.3
2017-Dec-02 04:00N 42°07' W 017°12'0 0.0 1029.6 17.3
2017-Dec-02 03:00N 42°07' W 017°12'1 0.7 1029.8 17.3
2017-Dec-02 02:00N 42°07' W 017°13'0 0.4 1030.0 17.4
2017-Dec-02 01:00N 42°07' W 017°12'0 0.0 1030.2 17.4
2017-Dec-02 00:00N 42°07' W 017°12'0 0.4 1030.4 17.4
2017-Dec-01 23:00N 42°07' W 017°11'0 0.0 1030.6 17.4
2017-Dec-01 22:00N 42°07' W 017°11'0 0.4 1030.7 17.4
2017-Dec-01 21:00N 42°07' W 017°11'1 0.9 1030.8 17.4
2017-Dec-01 20:00N 42°07' W 017°10'1 0.6 1030.7 17.4
2017-Dec-01 19:00N 42°07' W 017°10'0 0.4 1030.1 17.4
2017-Dec-01 18:00N 42°07' W 017°09'1 1.1 1030.0 17.5
2017-Dec-01 17:00N 42°08' W 017°08'1 1.1 1029.8 17.4
2017-Dec-01 16:00N 42°08' W 017°07'   1029.6 17.4

Dump ship's entire track history